Time;durP1;ratioP1;P1;durP2;ratioP2;P2;SDS_P1;SDS_P2;PMS_P1;PMS_P2;Temp;Humidity;BMP_temperature;BMP_pressure;BME280_temperature;BME280_humidity;BME280_pressure;Samples;Min_cycle;Max_cycle;Signal;HPM_P1;HPM_P2
2021/11/14 00:01:44;;;;;;;19.40;13.67;;;;;;;3.40;87.73;97895.44;6215928;28;20207;-68
2021/11/14 00:04:47;;;;;;;21.37;14.37;;;;;;;3.40;88.33;97899.81;6220543;28;20186;-68
2021/11/14 00:07:49;;;;;;;24.83;16.53;;;;;;;3.39;88.28;97898.13;6217359;28;20303;-68
2021/11/14 00:10:57;;;;;;;22.63;14.63;;;;;;;3.38;88.15;97892.06;6206469;28;20197;-68
2021/11/14 00:14:00;;;;;;;25.77;15.13;;;;;;;3.37;88.37;97894.75;6217157;28;20196;-68
2021/11/14 00:17:04;;;;;;;24.10;16.50;;;;;;;3.37;88.47;97895.59;6208119;28;20658;-68
2021/11/14 00:20:11;;;;;;;23.80;14.67;;;;;;;3.37;88.01;97898.22;6215552;28;20576;-68
2021/11/14 00:23:14;;;;;;;23.97;14.87;;;;;;;3.37;88.02;97903.44;6214327;28;20693;-67
2021/11/14 00:26:16;;;;;;;22.07;14.57;;;;;;;3.38;88.42;97907.72;6213900;28;20743;-69
2021/11/14 00:29:18;;;;;;;21.40;13.97;;;;;;;3.38;88.39;97905.13;6206471;28;20208;-68
2021/11/14 00:32:21;;;;;;;19.57;12.93;;;;;;;3.40;88.04;97905.88;6203411;28;20696;-67
2021/11/14 00:35:24;;;;;;;20.83;13.53;;;;;;;3.44;88.14;97904.81;6208414;28;20306;-68
2021/11/14 00:38:26;;;;;;;18.47;13.20;;;;;;;3.44;88.15;97909.19;6211995;28;20286;-68
2021/11/14 00:41:28;;;;;;;20.43;13.13;;;;;;;3.43;88.19;97910.09;6220709;28;20741;-68
2021/11/14 00:44:30;;;;;;;19.60;13.67;;;;;;;3.42;88.62;97919.69;6211319;28;20266;-68
2021/11/14 00:47:33;;;;;;;23.67;13.40;;;;;;;3.42;88.34;97913.63;6219995;28;20285;-68
2021/11/14 00:50:38;;;;;;;19.43;12.73;;;;;;;3.39;88.50;97908.56;6215774;28;20209;-68
2021/11/14 00:53:40;;;;;;;22.07;14.57;;;;;;;3.38;88.36;97912.09;6212006;28;20279;-67
2021/11/14 00:56:43;;;;;;;22.73;14.27;;;;;;;3.38;88.15;97920.78;6208957;28;20754;-68
2021/11/14 00:59:45;;;;;;;18.07;12.57;;;;;;;3.37;88.29;97918.22;6214814;28;20211;-70
2021/11/14 01:02:47;;;;;;;21.07;13.23;;;;;;;3.37;88.46;97926.06;6214343;28;20204;-68
2021/11/14 01:05:49;;;;;;;21.50;14.63;;;;;;;3.35;88.02;97915.69;6219818;28;20705;-68
2021/11/14 01:08:51;;;;;;;25.83;16.20;;;;;;;3.34;88.32;97921.81;6208559;28;20203;-68
2021/11/14 01:11:53;;;;;;;24.47;14.67;;;;;;;3.34;88.14;97924.44;6219909;28;20188;-68
2021/11/14 01:14:55;;;;;;;22.47;14.53;;;;;;;3.33;88.26;97930.56;6215240;28;20572;-68
2021/11/14 01:17:58;;;;;;;23.17;14.60;;;;;;;3.33;88.60;97927.94;6196052;28;20203;-67
2021/11/14 01:21:03;;;;;;;29.57;18.23;;;;;;;3.32;88.73;97921.03;6195845;28;20197;-68
2021/11/14 01:24:05;;;;;;;24.27;15.47;;;;;;;3.29;88.33;97922.03;6212127;28;20301;-68
2021/11/14 01:27:08;;;;;;;21.23;13.33;;;;;;;3.32;88.47;97923.66;6217921;28;20225;-68
2021/11/14 01:30:15;;;;;;;21.07;14.67;;;;;;;3.34;88.97;97927.88;6220094;28;20670;-68
2021/11/14 01:33:19;;;;;;;28.20;14.73;;;;;;;3.35;88.53;97928.72;6210485;28;20252;-68
2021/11/14 01:36:21;;;;;;;20.30;14.13;;;;;;;3.36;88.84;97930.44;6219270;28;20215;-68
2021/11/14 01:39:24;;;;;;;23.33;14.03;;;;;;;3.36;88.59;97935.63;6219871;28;20197;-68
2021/11/14 01:42:26;;;;;;;21.10;13.53;;;;;;;3.36;88.57;97938.25;6217117;28;20215;-68
2021/11/14 01:45:28;;;;;;;23.20;15.70;;;;;;;3.34;88.25;97938.31;6218134;28;20281;-68
2021/11/14 01:48:32;;;;;;;21.63;13.77;;;;;;;3.32;88.45;97937.53;6218560;28;20194;-68
2021/11/14 01:51:34;;;;;;;23.93;15.03;;;;;;;3.32;88.52;97942.75;6215085;28;20195;-68
2021/11/14 01:54:36;;;;;;;21.03;13.27;;;;;;;3.33;88.37;97941.84;6219666;28;20274;-68
2021/11/14 01:57:38;;;;;;;19.13;13.13;;;;;;;3.34;88.62;97940.94;6211005;28;20199;-67
2021/11/14 02:00:48;;;;;;;21.50;13.27;;;;;;;3.36;89.04;97942.63;6213086;28;20694;-68
2021/11/14 02:03:54;;;;;;;26.00;15.60;;;;;;;3.32;88.04;97941.91;6217421;28;20189;-69
2021/11/14 02:06:57;;;;;;;27.83;15.70;;;;;;;3.28;88.18;97941.22;6217958;28;20477;-68
2021/11/14 02:09:59;;;;;;;23.60;13.87;;;;;;;3.28;88.68;97945.59;6209313;28;20234;-68
2021/11/14 02:13:03;;;;;;;23.90;13.53;;;;;;;3.28;88.61;97943.00;6204629;28;20548;-68
2021/11/14 02:16:05;;;;;;;21.37;14.03;;;;;;;3.28;88.63;97943.84;6214672;28;20205;-70
2021/11/14 02:19:09;;;;;;;25.20;14.80;;;;;;;3.26;88.78;97944.81;6214565;28;20723;-68
2021/11/14 02:22:11;;;;;;;26.03;15.50;;;;;;;3.26;88.62;97950.03;6193607;28;20632;-68
2021/11/14 02:25:17;;;;;;;22.40;12.50;;;;;;;3.26;88.54;97950.88;6215305;28;20201;-68
2021/11/14 02:28:20;;;;;;;21.30;13.57;;;;;;;3.27;88.76;97947.34;6218995;28;20207;-67
2021/11/14 02:31:25;;;;;;;22.60;13.30;;;;;;;3.28;88.72;97949.06;6219219;28;20200;-68
2021/11/14 02:34:27;;;;;;;28.70;16.70;;;;;;;3.26;88.75;97945.66;6217111;28;20198;-68
2021/11/14 02:37:29;;;;;;;18.67;12.57;;;;;;;3.25;88.32;97951.78;6215348;28;20185;-68
2021/11/14 02:40:31;;;;;;;23.27;13.33;;;;;;;3.26;89.06;97955.25;6217315;28;20198;-68
2021/11/14 02:43:35;;;;;;;32.50;17.77;;;;;;;3.26;88.98;97955.25;6207202;28;20242;-68
2021/11/14 02:46:37;;;;;;;21.60;12.90;;;;;;;3.24;88.53;97952.72;6201727;28;20252;-68
2021/11/14 02:49:39;;;;;;;26.67;13.50;;;;;;;3.25;88.27;97962.22;6213520;28;20196;-68
2021/11/14 02:52:42;;;;;;;20.80;12.17;;;;;;;3.28;88.26;97956.03;6218844;28;20196;-67
2021/11/14 02:55:44;;;;;;;21.73;13.13;;;;;;;3.29;88.50;97953.31;6216993;28;20529;-68
2021/11/14 02:58:47;;;;;;;23.47;12.97;;;;;;;3.30;88.57;97954.16;6214068;28;20228;-68
2021/11/14 03:01:53;;;;;;;20.63;12.47;;;;;;;3.31;88.84;97953.25;6217890;28;20203;-67
2021/11/14 03:04:56;;;;;;;18.23;11.87;;;;;;;3.30;88.66;97965.44;6206305;28;20203;-68
2021/11/14 03:07:58;;;;;;;20.87;11.80;;;;;;;3.31;88.30;97955.88;6215009;28;20279;-68
2021/11/14 03:11:01;;;;;;;22.10;12.27;;;;;;;3.32;88.47;97947.13;6216113;28;20198;-68
2021/11/14 03:14:04;;;;;;;22.30;12.27;;;;;;;3.32;88.61;97942.75;6208882;28;20779;-68
2021/11/14 03:17:06;;;;;;;19.13;11.23;;;;;;;3.33;88.24;97946.22;6206971;28;20605;-67
2021/11/14 03:20:09;;;;;;;20.40;11.40;;;;;;;3.34;87.96;97953.13;6218040;28;20260;-67
2021/11/14 03:23:12;;;;;;;25.93;13.60;;;;;;;3.34;88.48;97953.13;6223193;28;20194;-68
2021/11/14 03:26:15;;;;;;;21.00;11.97;;;;;;;3.34;88.45;97947.91;6210398;28;20214;-68
2021/11/14 03:29:17;;;;;;;23.83;12.77;;;;;;;3.34;88.12;97959.19;6215737;28;20612;-68
2021/11/14 03:32:19;;;;;;;21.70;12.43;;;;;;;3.35;88.56;97954.81;6220891;28;20198;-67
2021/11/14 03:35:23;;;;;;;18.47;12.27;;;;;;;3.35;88.01;97954.81;6223022;28;20195;-67
2021/11/14 03:38:29;;;;;;;20.87;12.70;;;;;;;3.36;88.14;97953.91;6221192;28;20203;-69
2021/11/14 03:41:34;;;;;;;19.40;11.77;;;;;;;3.37;87.97;97954.75;6197468;28;20200;-68
2021/11/14 03:44:37;;;;;;;23.27;13.47;;;;;;;3.37;88.49;97954.75;6218367;28;20314;-68
2021/11/14 03:47:39;;;;;;;20.30;12.20;;;;;;;3.37;88.02;97963.41;6215962;28;20203;-68
2021/11/14 03:50:42;;;;;;;19.63;11.57;;;;;;;3.38;87.86;97956.44;6217879;28;20192;-67
2021/11/14 03:53:44;;;;;;;20.07;11.03;;;;;;;3.36;88.45;97968.72;6198134;28;20214;-67
2021/11/14 03:56:46;;;;;;;22.57;13.07;;;;;;;3.36;88.23;97960.88;6197927;28;20407;-69
2021/11/14 03:59:49;;;;;;;22.13;12.33;;;;;;;3.36;87.81;97961.72;6220053;28;20205;-67
2021/11/14 04:02:53;;;;;;;23.97;12.40;;;;;;;3.36;88.47;97969.56;6215243;28;20280;-67
2021/11/14 04:05:56;;;;;;;25.93;13.37;;;;;;;3.36;88.46;97964.34;6203374;28;20197;-68
2021/11/14 04:08:59;;;;;;;24.77;13.20;;;;;;;3.37;88.19;97965.19;6209110;28;20271;-68
2021/11/14 04:12:03;;;;;;;19.33;11.10;;;;;;;3.38;88.07;97974.69;6208143;28;20235;-69
2021/11/14 04:15:08;;;;;;;21.27;11.83;;;;;;;3.38;88.67;97965.13;6210499;28;20664;-69
2021/11/14 04:18:10;;;;;;;21.27;12.67;;;;;;;3.39;88.17;97977.25;6214626;28;20188;-67
2021/11/14 04:21:12;;;;;;;26.13;13.13;;;;;;;3.39;88.36;97981.63;6221810;28;20191;-67
2021/11/14 04:24:14;;;;;;;27.33;14.43;;;;;;;3.37;87.70;97976.47;6214718;28;20199;-67
2021/11/14 04:27:16;;;;;;;28.70;14.97;;;;;;;3.38;87.80;97983.38;6201425;28;20290;-67
2021/11/14 04:30:18;;;;;;;26.07;13.10;;;;;;;3.38;88.18;97985.97;6208054;28;20204;-68
2021/11/14 04:33:21;;;;;;;24.00;11.93;;;;;;;3.37;88.32;97981.69;6219437;28;20274;-67
2021/11/14 04:36:24;;;;;;;22.10;13.37;;;;;;;3.38;88.28;97987.75;6205297;28;20212;-68
2021/11/14 04:39:26;;;;;;;20.60;11.10;;;;;;;3.38;88.43;97996.41;6217981;28;20577;-68
2021/11/14 04:42:28;;;;;;;25.20;13.13;;;;;;;3.37;88.04;97992.13;6218187;28;20277;-67
2021/11/14 04:45:31;;;;;;;26.70;14.67;;;;;;;3.33;87.81;98004.44;6214606;28;20566;-68
2021/11/14 04:48:34;;;;;;;24.03;14.20;;;;;;;3.30;88.20;97998.50;6220872;28;20214;-68
2021/11/14 04:51:36;;;;;;;26.87;13.50;;;;;;;3.28;88.23;98002.97;6220973;28;20190;-68
2021/11/14 04:54:38;;;;;;;24.57;13.57;;;;;;;3.29;88.11;98002.06;6220553;28;20697;-68
2021/11/14 04:57:40;;;;;;;24.73;12.90;;;;;;;3.30;87.81;98011.56;6221262;28;20215;-68
2021/11/14 05:00:49;;;;;;;26.03;12.83;;;;;;;3.32;87.91;98013.19;6218534;28;20199;-67
2021/11/14 05:03:51;;;;;;;25.20;14.00;;;;;;;3.33;87.90;98014.03;6218407;28;20603;-68
2021/11/14 05:06:54;;;;;;;26.17;12.93;;;;;;;3.31;88.33;98013.25;6220322;28;20215;-67
2021/11/14 05:09:56;;;;;;;22.17;12.77;;;;;;;3.31;88.16;98011.47;6216897;28;20199;-68
2021/11/14 05:12:59;;;;;;;25.47;12.37;;;;;;;3.33;88.32;98017.47;6219833;28;20199;-68
2021/11/14 05:16:00;;;;;;;24.43;13.20;;;;;;;3.32;nan;98018.41;6212834;28;20188;-67
2021/11/14 05:19:04;;;;;;;23.60;12.43;;;;;;;3.31;88.04;98021.91;6213942;28;20218;-68
2021/11/14 05:22:06;;;;;;;21.83;12.77;;;;;;;3.31;87.81;98015.84;6215718;28;20196;-68
2021/11/14 05:25:09;;;;;;;27.33;13.97;;;;;;;3.33;88.25;98029.69;6217702;28;20664;-68
2021/11/14 05:28:12;;;;;;;20.87;11.53;;;;;;;3.34;88.18;98028.75;6217983;28;20220;-68
2021/11/14 05:31:14;;;;;;;24.33;12.47;;;;;;;3.36;88.30;98024.31;6219515;28;20200;-67
2021/11/14 05:34:16;;;;;;;24.77;12.67;;;;;;;3.37;88.30;98036.47;6211621;28;20563;-67
2021/11/14 05:37:18;;;;;;;21.73;11.67;;;;;;;3.39;88.64;98039.00;6207509;28;20200;-68
2021/11/14 05:40:20;;;;;;;21.80;12.00;;;;;;;3.38;88.14;98037.31;6218486;28;20207;-68
2021/11/14 05:43:22;;;;;;;20.33;11.37;;;;;;;3.38;87.96;98035.53;6216606;28;20228;-68
2021/11/14 05:46:25;;;;;;;19.67;11.50;;;;;;;3.40;88.50;98033.69;6217713;28;20266;-71
2021/11/14 05:49:27;;;;;;;18.70;10.90;;;;;;;3.40;88.05;98040.66;6218310;28;20519;-68
2021/11/14 05:52:29;;;;;;;23.67;12.57;;;;;;;3.39;nan;98046.81;6208037;28;20572;-67
2021/11/14 05:55:33;;;;;;;19.60;11.53;;;;;;;3.37;88.17;98044.28;6206020;28;20190;-68
2021/11/14 05:58:50;;;;;;;21.10;10.93;;;;;;;3.37;88.46;98056.47;6218633;28;20315;-67
2021/11/14 06:02:21;;;;;;;18.83;10.27;;;;;;;3.38;88.30;98059.03;6217849;28;20239;-68
2021/11/14 06:05:17;;;;;;;19.90;11.50;;;;;;;3.39;87.87;98060.72;6219463;28;20191;-67
2021/11/14 06:08:21;;;;;;;18.00;10.07;;;;;;;3.42;88.54;98070.16;6217771;28;20222;-68
2021/11/14 06:11:25;;;;;;;21.37;11.57;;;;;;;3.43;87.90;98072.69;6216140;28;20711;-68
2021/11/14 06:14:29;;;;;;;20.73;11.90;;;;;;;3.44;88.32;98084.81;6216916;28;20248;-69
2021/11/14 06:17:31;;;;;;;19.50;10.90;;;;;;;3.45;87.75;98083.91;6213856;28;20647;-70
2021/11/14 06:20:33;;;;;;;22.97;12.37;;;;;;;3.47;88.07;98089.91;6216751;28;20282;-68
2021/11/14 06:23:35;;;;;;;20.20;11.87;;;;;;;3.49;88.27;98093.31;6217116;28;20337;-67
2021/11/14 06:26:37;;;;;;;21.93;12.00;;;;;;;3.52;87.89;98092.28;6217605;28;20233;-68
2021/11/14 06:29:39;;;;;;;22.00;11.80;;;;;;;3.55;88.19;98105.22;6217925;28;20686;-67
2021/11/14 06:32:43;;;;;;;21.30;13.33;;;;;;;3.56;87.91;98099.94;6211569;28;20219;-68
2021/11/14 06:35:45;;;;;;;22.53;11.90;;;;;;;3.58;87.92;98111.16;6214203;28;20308;-71
2021/11/14 06:38:47;;;;;;;21.37;11.80;;;;;;;3.59;88.35;98119.81;6205513;28;20185;-70
2021/11/14 06:41:49;;;;;;;19.03;11.10;;;;;;;3.60;88.12;98119.72;6216012;28;20231;-68
2021/11/14 06:44:51;;;;;;;21.10;11.43;;;;;;;3.61;88.13;98126.66;6197023;28;20240;-68
2021/11/14 06:47:53;;;;;;;19.03;11.53;;;;;;;3.64;87.81;98130.88;6201071;28;20777;-68
2021/11/14 06:50:55;;;;;;;17.03;11.13;;;;;;;3.66;87.85;98129.06;6207147;28;20529;-67
2021/11/14 06:53:57;;;;;;;15.00;10.37;;;;;;;3.67;88.01;98130.75;6209979;28;20287;-68
2021/11/14 06:57:00;;;;;;;16.40;10.27;;;;;;;3.67;87.76;98133.38;6219998;28;20187;-68
2021/11/14 07:00:24;;;;;;;18.50;10.30;;;;;;;3.69;87.54;98132.34;6218284;28;20202;-67
2021/11/14 07:03:26;;;;;;;18.30;11.30;;;;;;;3.71;88.01;98130.53;6221366;28;20612;-67
2021/11/14 07:06:28;;;;;;;18.63;11.80;;;;;;;3.75;88.09;98135.63;6222679;28;20205;-68
2021/11/14 07:09:30;;;;;;;15.57;10.37;;;;;;;3.77;87.98;98142.47;6223681;28;20232;-67
2021/11/14 07:12:33;;;;;;;16.57;11.07;;;;;;;3.77;87.78;98146.84;6219297;28;20561;-67
2021/11/14 07:15:35;;;;;;;20.50;11.77;;;;;;;3.77;87.26;98134.63;6219297;28;20286;-68
2021/11/14 07:18:37;;;;;;;16.43;9.97;;;;;;;3.78;87.22;98141.56;6223230;28;20215;-67
2021/11/14 07:21:39;;;;;;;17.03;10.17;;;;;;;3.80;87.54;98142.31;6223010;28;20742;-67
2021/11/14 07:24:41;;;;;;;14.90;10.03;;;;;;;3.84;87.73;98143.88;6220573;28;20203;-68
2021/11/14 07:27:47;;;;;;;20.07;12.63;;;;;;;3.86;87.30;98144.66;6223090;28;20232;-69
2021/11/14 07:30:49;;;;;;;17.43;10.20;;;;;;;3.88;86.85;98150.66;6215709;28;20601;-68
2021/11/14 07:33:51;;;;;;;19.67;10.57;;;;;;;3.91;87.30;98153.13;6216802;28;20199;-70
2021/11/14 07:36:53;;;;;;;17.23;10.80;;;;;;;3.93;87.11;98159.13;6209342;28;20750;-69
2021/11/14 07:39:55;;;;;;;16.50;9.83;;;;;;;3.96;87.16;98160.75;6214995;28;20239;-68
2021/11/14 07:42:58;;;;;;;17.83;11.50;;;;;;;3.98;87.16;98158.91;6221463;28;20208;-67
2021/11/14 07:46:00;;;;;;;18.83;11.33;;;;;;;4.02;87.08;98152.63;6218638;28;20309;-68
2021/11/14 07:49:03;;;;;;;15.83;10.43;;;;;;;4.05;86.55;98152.47;6212472;28;20332;-68
2021/11/14 07:52:06;;;;;;;16.03;10.17;;;;;;;4.08;87.29;98157.56;6215515;28;20664;-68
2021/11/14 07:55:09;;;;;;;24.93;12.67;;;;;;;4.09;87.22;98154.88;6220306;28;20202;-69
2021/11/14 07:58:12;;;;;;;20.27;12.57;;;;;;;4.04;86.52;98162.09;6219427;28;20203;-68
2021/11/14 08:01:14;;;;;;;20.43;13.43;;;;;;;4.00;86.52;98163.13;6216919;28;20285;-67
2021/11/14 08:04:18;;;;;;;21.80;14.10;;;;;;;3.98;86.32;98156.31;6215529;28;20561;-67
2021/11/14 08:07:20;;;;;;;22.73;13.33;;;;;;;3.96;85.96;98158.13;6219333;28;20650;-68
2021/11/14 08:10:22;;;;;;;27.43;14.47;;;;;;;3.99;86.00;98166.66;6215198;28;20689;-67
2021/11/14 08:13:25;;;;;;;24.87;13.60;;;;;;;3.98;85.82;98166.75;6201299;28;21055;-70
2021/11/14 08:16:27;;;;;;;20.13;12.40;;;;;;;3.97;85.68;98167.66;6214692;28;20205;-67
2021/11/14 08:19:29;;;;;;;23.53;14.00;;;;;;;3.96;85.29;98171.19;6219906;28;20343;-67
2021/11/14 08:22:33;;;;;;;22.40;13.10;;;;;;;3.99;84.63;98171.88;6211948;28;20573;-67
2021/11/14 08:25:36;;;;;;;24.60;13.80;;;;;;;4.02;84.76;98176.13;6216574;28;20192;-68
2021/11/14 08:28:38;;;;;;;23.20;12.13;;;;;;;4.05;84.54;98173.38;6212154;28;20209;-67
2021/11/14 08:31:40;;;;;;;23.97;13.40;;;;;;;4.14;84.45;98191.22;6212961;28;20199;-67
2021/11/14 08:34:43;;;;;;;24.03;13.77;;;;;;;4.16;84.98;98184.19;6220513;28;20219;-69
2021/11/14 08:37:47;;;;;;;25.33;14.73;;;;;;;4.19;84.97;98186.66;6200955;28;20200;-67
2021/11/14 08:40:49;;;;;;;19.83;12.63;;;;;;;4.23;85.04;98182.97;6207054;28;20197;-68
2021/11/14 08:43:51;;;;;;;20.60;13.33;;;;;;;4.31;84.86;98182.59;6217419;28;20195;-69
2021/11/14 08:46:54;;;;;;;19.57;12.07;;;;;;;4.31;84.77;98191.28;6211346;28;20259;-67
2021/11/14 08:49:56;;;;;;;24.57;13.33;;;;;;;4.32;84.09;98192.97;6202917;28;20216;-67
2021/11/14 08:52:59;;;;;;;21.90;13.03;;;;;;;4.34;83.70;98188.53;6220666;28;20207;-67
2021/11/14 08:56:02;;;;;;;24.83;13.77;;;;;;;4.41;84.48;98191.69;6220707;28;20200;-68
2021/11/14 08:59:07;;;;;;;22.83;13.47;;;;;;;4.42;83.67;98191.63;6221191;28;20640;-68
2021/11/14 09:02:10;;;;;;;19.43;13.03;;;;;;;4.45;83.91;98194.09;6214210;28;20205;-66
2021/11/14 09:05:12;;;;;;;25.80;15.33;;;;;;;4.44;83.61;98205.47;6220025;28;20224;-67
2021/11/14 09:08:14;;;;;;;23.93;14.40;;;;;;;4.40;83.19;98211.75;6218819;28;20255;-67
2021/11/14 09:11:17;;;;;;;21.77;13.57;;;;;;;4.36;82.66;98206.75;6217681;28;20671;-68
2021/11/14 09:14:19;;;;;;;22.20;13.90;;;;;;;4.40;82.81;98205.69;6215921;28;20879;-68
2021/11/14 09:17:23;;;;;;;23.53;14.43;;;;;;;4.47;83.24;98214.94;6218533;28;20265;-67
2021/11/14 09:20:25;;;;;;;25.20;14.77;;;;;;;4.52;83.04;98205.09;6219671;28;20196;-69
2021/11/14 09:23:27;;;;;;;22.13;14.23;;;;;;;4.53;83.41;98204.19;6211357;28;20658;-67
2021/11/14 09:26:29;;;;;;;23.37;14.70;;;;;;;4.55;82.31;98204.97;6218005;28;20803;-67
2021/11/14 09:29:31;;;;;;;27.07;16.43;;;;;;;4.50;82.16;98198.25;6220269;28;20210;-67
2021/11/14 09:32:35;;;;;;;25.03;15.23;;;;;;;4.44;82.33;98197.63;6220012;28;20208;-67
2021/11/14 09:35:37;;;;;;;21.83;14.30;;;;;;;4.45;83.15;98199.31;6217373;28;20609;-67
2021/11/14 09:38:40;;;;;;;26.90;14.53;;;;;;;4.48;82.66;98200.13;6219028;28;20626;-67
2021/11/14 09:41:47;;;;;;;25.27;15.73;;;;;;;4.52;81.71;98201.63;6208220;28;21000;-67
2021/11/14 09:44:51;;;;;;;26.37;15.67;;;;;;;4.41;81.82;98196.91;6214670;28;20237;-68
2021/11/14 09:47:54;;;;;;;27.93;16.70;;;;;;;4.32;81.90;98198.19;6217030;28;20219;-68
2021/11/14 09:50:57;;;;;;;25.67;16.17;;;;;;;4.34;82.70;98199.00;6215441;28;20197;-68
2021/11/14 09:54:00;;;;;;;23.80;15.97;;;;;;;4.36;82.00;98193.69;6218180;28;20739;-68
2021/11/14 09:57:03;;;;;;;28.30;16.57;;;;;;;4.44;81.92;98195.03;6218964;28;20277;-67
2021/11/14 10:00:08;;;;;;;19.53;13.47;;;;;;;4.55;82.01;98204.13;6219581;28;20230;-69
2021/11/14 10:03:10;;;;;;;24.87;15.37;;;;;;;4.62;81.90;98201.13;6212281;28;20214;-68
2021/11/14 10:06:12;;;;;;;21.80;13.67;;;;;;;4.70;81.59;98200.75;6216247;28;20289;-67
2021/11/14 10:09:14;;;;;;;19.97;13.93;;;;;;;4.70;81.28;98204.22;6213422;28;20269;-67
2021/11/14 10:12:23;;;;;;;19.37;12.47;;;;;;;4.67;81.62;98206.16;6213879;28;20594;-67
2021/11/14 10:15:25;;;;;;;18.30;11.97;;;;;;;4.67;81.69;98207.00;6212108;28;20188;-67
2021/11/14 10:18:27;;;;;;;27.27;16.33;;;;;;;4.64;81.03;98208.91;6214641;28;20660;-68
2021/11/14 10:21:32;;;;;;;23.67;15.60;;;;;;;4.54;81.59;98200.66;6216336;28;20767;-68
2021/11/14 10:24:34;;;;;;;25.20;14.90;;;;;;;4.53;81.58;98209.41;6210246;28;20188;-67
2021/11/14 10:27:37;;;;;;;24.43;15.47;;;;;;;4.51;81.45;98211.25;6216948;28;20677;-67
2021/11/14 10:30:43;;;;;;;26.93;15.50;;;;;;;4.50;82.32;98200.84;6217252;28;20214;-68
2021/11/14 10:33:45;;;;;;;26.30;15.83;;;;;;;4.44;81.69;98200.25;6211757;28;20500;-70
2021/11/14 10:36:56;;;;;;;30.60;16.27;;;;;;;4.43;81.71;98206.38;6218777;28;20278;-67
2021/11/14 10:40:02;;;;;;;24.97;14.73;;;;;;;4.40;81.78;98209.13;6205765;28;20197;-67
2021/11/14 10:43:05;;;;;;;27.43;16.27;;;;;;;4.42;82.29;98196.84;6216865;28;20665;-68
2021/11/14 10:46:17;;;;;;;24.80;14.20;;;;;;;4.55;82.22;98196.28;6203893;28;20235;-68
2021/11/14 10:49:21;;;;;;;21.57;12.93;;;;;;;4.64;81.82;98201.06;6209491;28;20285;-68
2021/11/14 10:52:28;;;;;;;22.00;13.53;;;;;;;4.72;81.78;98185.84;6218522;28;20548;-68
2021/11/14 10:55:36;;;;;;;23.67;13.27;;;;;;;4.75;81.42;98204.84;6212549;28;20197;-70
2021/11/14 10:58:41;;;;;;;19.23;11.97;;;;;;;4.75;80.61;98197.00;6216533;28;20691;-68
2021/11/14 11:01:45;;;;;;;24.33;14.20;;;;;;;4.71;81.13;98199.84;6211431;28;20272;-68
2021/11/14 11:04:49;;;;;;;23.13;14.30;;;;;;;4.65;81.51;98198.38;6192871;28;20201;-69
2021/11/14 11:08:06;;;;;;;24.93;14.03;;;;;;;4.71;82.08;98210.28;6216980;28;20200;-68
2021/11/14 11:11:08;;;;;;;21.30;13.37;;;;;;;4.69;81.76;98206.94;6217000;28;20200;-67
2021/11/14 11:14:11;;;;;;;21.50;12.87;;;;;;;4.62;81.77;98218.56;6217851;28;20207;-68
2021/11/14 11:17:13;;;;;;;22.03;12.67;;;;;;;4.58;81.71;98214.44;6217778;28;20196;-67
2021/11/14 11:20:20;;;;;;;23.47;12.23;;;;;;;4.58;82.18;98211.81;6217816;28;20271;-67
2021/11/14 11:23:24;;;;;;;29.17;15.20;;;;;;;4.56;81.20;98211.88;6218261;28;20212;-67
2021/11/14 11:26:32;;;;;;;27.97;15.73;;;;;;;4.43;81.30;98216.00;6217610;28;20193;-68
2021/11/14 11:29:42;;;;;;;25.97;15.60;;;;;;;4.39;81.64;98206.63;6199659;28;20211;-67
2021/11/14 11:32:45;;;;;;;23.07;12.93;;;;;;;4.42;81.82;98212.53;6213000;28;20684;-70
2021/11/14 11:35:48;;;;;;;25.27;14.80;;;;;;;4.51;82.36;98213.00;6217530;28;20197;-67
2021/11/14 11:38:51;;;;;;;19.90;12.77;;;;;;;4.47;82.38;98224.53;6213580;28;20232;-68
2021/11/14 11:41:55;;;;;;;27.90;15.13;;;;;;;4.41;82.87;98210.84;6217984;28;20237;-68
2021/11/14 11:45:08;;;;;;;22.70;12.83;;;;;;;4.42;82.53;98224.75;6215368;28;20735;-70
2021/11/14 11:48:15;;;;;;;24.23;13.43;;;;;;;4.46;82.20;98215.84;6204884;28;20231;-67
2021/11/14 11:51:27;;;;;;;23.17;13.70;;;;;;;4.51;82.25;98226.06;6222105;28;20571;-67
2021/11/14 11:54:34;;;;;;;24.67;13.70;;;;;;;4.53;82.81;98213.78;6220714;28;20204;-67
2021/11/14 11:57:36;;;;;;;21.77;12.90;;;;;;;4.54;82.36;98218.09;6205423;28;20252;-67
2021/11/14 12:01:00;;;;;;;21.33;12.87;;;;;;;4.53;81.85;98216.41;6220871;28;20197;-68
2021/11/14 12:04:19;;;;;;;18.73;10.97;;;;;;;4.47;81.96;98214.94;6213884;28;20198;-67
2021/11/14 12:07:31;;;;;;;19.33;11.93;;;;;;;4.48;81.92;98216.63;6218615;28;20193;-70
2021/11/14 12:10:33;;;;;;;22.47;12.30;;;;;;;4.50;82.31;98219.16;6219697;28;20201;-67
2021/11/14 12:13:41;;;;;;;21.33;12.80;;;;;;;4.46;82.07;98218.47;6214975;28;20207;-66
2021/11/14 12:16:53;;;;;;;23.67;13.03;;;;;;;4.42;82.99;98211.69;6216352;28;20656;-68
2021/11/14 12:20:08;;;;;;;20.97;12.90;;;;;;;4.40;82.00;98216.97;6212518;28;20221;-68
2021/11/14 12:23:43;;;;;;;26.63;15.33;;;;;;;4.41;82.96;98218.66;6221978;28;20204;-66
2021/11/14 12:26:45;;;;;;;22.37;12.73;;;;;;;4.43;82.00;98223.84;6216086;28;20197;-67
2021/11/14 12:30:01;;;;;;;22.53;14.43;;;;;;;4.45;82.51;98217.63;6219921;28;20220;-67
2021/11/14 12:33:04;;;;;;;22.87;14.97;;;;;;;4.45;82.15;98220.25;6211344;28;20652;-68
2021/11/14 12:39:41;;;;;;;25.63;14.57;;;;;;;4.53;82.30;98239.94;6204978;28;20193;-67
2021/11/14 12:42:44;;;;;;;24.07;14.20;;;;;;;4.55;82.11;98233.72;6195381;28;20193;-67
2021/11/14 12:45:55;;;;;;;23.80;14.27;;;;;;;4.54;82.68;98232.03;6212015;28;20760;-69
2021/11/14 12:49:10;;;;;;;25.13;14.50;;;;;;;4.47;82.01;98237.63;6216329;28;20259;-67
2021/11/14 12:52:32;;;;;;;20.70;13.10;;;;;;;4.41;82.61;98239.56;6220086;28;20235;-67
2021/11/14 12:55:36;;;;;;;19.97;12.40;;;;;;;4.39;82.36;98244.03;6217573;28;20222;-67
2021/11/14 12:58:38;;;;;;;22.83;13.70;;;;;;;4.38;82.64;98239.75;6220825;28;20197;-67
2021/11/14 13:01:41;;;;;;;20.00;12.50;;;;;;;4.38;82.12;98242.34;6213962;28;20275;-67
2021/11/14 13:04:43;;;;;;;19.40;12.50;;;;;;;4.40;82.25;98239.66;6217369;28;20193;-67
2021/11/14 13:08:01;;;;;;;20.20;12.87;;;;;;;4.41;82.20;98244.81;6219455;28;20204;-67
2021/11/14 13:11:06;;;;;;;19.33;11.43;;;;;;;4.45;82.20;98238.53;6218040;28;20619;-67
2021/11/14 13:14:11;;;;;;;17.30;11.30;;;;;;;4.53;82.44;98235.56;6218964;28;20193;-67
2021/11/14 13:17:16;;;;;;;15.30;10.17;;;;;;;4.57;82.42;98241.50;6197591;28;20200;-68
2021/11/14 13:20:22;;;;;;;15.40;9.93;;;;;;;4.63;82.34;98228.97;6220144;28;20185;-68
2021/11/14 13:23:27;;;;;;;17.20;11.30;;;;;;;4.65;82.19;98239.34;6219663;28;20654;-68
2021/11/14 13:26:34;;;;;;;20.77;12.57;;;;;;;4.66;82.00;98236.66;6218865;28;20205;-68
2021/11/14 13:29:40;;;;;;;16.80;9.90;;;;;;;4.66;82.25;98238.44;6219082;28;20204;-67
2021/11/14 13:32:43;;;;;;;16.60;10.10;;;;;;;4.64;81.71;98245.50;6218923;28;20216;-68
2021/11/14 13:35:45;;;;;;;12.50;8.40;;;;;;;4.65;81.45;98249.81;6217842;28;20196;-70
2021/11/14 13:38:49;;;;;;;13.53;9.57;;;;;;;4.70;81.59;98259.13;6217868;28;20185;-67
2021/11/14 13:42:03;;;;;;;16.40;10.40;;;;;;;4.76;82.08;98250.16;6215376;28;20204;-68
2021/11/14 13:45:15;;;;;;;15.33;9.47;;;;;;;4.78;81.20;98250.94;6213798;28;20240;-71
2021/11/14 13:48:17;;;;;;;15.80;9.80;;;;;;;4.79;81.67;98250.00;6215712;28;20660;-68
2021/11/14 13:51:19;;;;;;;15.93;9.67;;;;;;;4.78;81.25;98258.78;6219181;28;20564;-67
2021/11/14 13:54:22;;;;;;;14.90;10.67;;;;;;;4.78;81.51;98256.16;6218744;28;20196;-67
2021/11/14 13:57:27;;;;;;;15.37;9.63;;;;;;;4.78;81.17;98251.78;6218380;28;20214;-68
2021/11/14 14:00:30;;;;;;;16.50;11.20;;;;;;;4.79;81.20;98260.47;6216727;28;20185;-67
2021/11/14 14:03:34;;;;;;;13.93;9.27;;;;;;;4.77;81.52;98267.53;6210606;28;20500;-68
2021/11/14 14:06:36;;;;;;;15.67;9.90;;;;;;;4.79;81.96;98273.53;6218674;28;20623;-67
2021/11/14 14:09:38;;;;;;;15.53;9.23;;;;;;;4.84;81.82;98279.38;6199204;28;20557;-67
2021/11/14 14:12:46;;;;;;;14.70;10.13;;;;;;;4.84;81.14;98279.38;6216745;28;20206;-67
2021/11/14 14:15:50;;;;;;;17.37;9.97;;;;;;;4.84;81.45;98271.53;6216461;28;20196;-68
2021/11/14 14:18:53;;;;;;;21.43;12.63;;;;;;;4.80;81.00;98265.59;6218977;28;20668;-68
2021/11/14 14:22:00;;;;;;;15.57;10.97;;;;;;;4.78;82.02;98272.69;6218963;28;20201;-67